Time;durP1;ratioP1;P1;durP2;ratioP2;P2;SDS_P1;SDS_P2;PMS_P1;PMS_P2;Temp;Humidity;BMP_temperature;BMP_pressure;BME280_temperature;BME280_humidity;BME280_pressure;Samples;Min_cycle;Max_cycle;Signal;HPM_P1;HPM_P2
2023/01/31 00:01:07;;;;;;;1.17;1.05;;;16.50;49.90;;;;;;5102645;28;20020;-70
2023/01/31 00:03:33;;;;;;;1.42;1.30;;;16.50;50.40;;;;;;5102515;28;20020;-70
2023/01/31 00:06:31;;;;;;;1.45;1.35;;;16.40;50.10;;;;;;5102522;28;20031;-70
2023/01/31 00:08:59;;;;;;;1.27;1.00;;;16.40;50.60;;;;;;5090147;28;20119;-71
2023/01/31 00:11:26;;;;;;;1.13;0.98;;;16.40;50.70;;;;;;5102277;28;20028;-70
2023/01/31 00:13:53;;;;;;;1.90;1.50;;;16.40;50.40;;;;;;5102239;28;20027;-69
2023/01/31 00:16:20;;;;;;;1.33;1.23;;;16.50;50.00;;;;;;5102160;28;20057;-70
2023/01/31 00:18:46;;;;;;;1.17;1.08;;;16.60;50.20;;;;;;5102127;28;20126;-70
2023/01/31 00:21:24;;;;;;;1.95;1.30;;;16.70;49.70;;;;;;5101029;28;20020;-70
2023/01/31 00:23:51;;;;;;;1.05;0.95;;;16.80;49.50;;;;;;5102159;28;20036;-70
2023/01/31 00:26:26;;;;;;;1.45;1.10;;;16.80;49.50;;;;;;5101999;28;20024;-70
2023/01/31 00:28:53;;;;;;;0.93;0.93;;;16.80;49.40;;;;;;5100668;28;20051;-71
2023/01/31 00:31:21;;;;;;;1.48;1.10;;;16.90;49.20;;;;;;5101801;28;20251;-70
2023/01/31 00:33:49;;;;;;;0.98;0.93;;;16.90;49.30;;;;;;5100618;28;20032;-70
2023/01/31 00:36:17;;;;;;;1.27;1.10;;;16.90;49.10;;;;;;5101715;28;20016;-70
2023/01/31 00:38:44;;;;;;;1.63;1.10;;;16.90;49.10;;;;;;5100320;28;20024;-70
2023/01/31 00:41:10;;;;;;;1.63;1.08;;;17.00;49.10;;;;;;5100228;28;20217;-71
2023/01/31 00:43:36;;;;;;;1.40;1.13;;;16.90;48.90;;;;;;5101547;28;20030;-70
2023/01/31 00:46:03;;;;;;;1.17;0.98;;;17.00;49.10;;;;;;5101576;28;20095;-70
2023/01/31 00:48:29;;;;;;;0.98;0.88;;;17.00;49.00;;;;;;5101462;28;20296;-70
2023/01/31 00:50:55;;;;;;;1.15;1.05;;;17.00;48.80;;;;;;5099956;28;20227;-70
2023/01/31 00:53:22;;;;;;;1.50;1.10;;;17.00;49.00;;;;;;5100006;28;20030;-70
2023/01/31 00:56:05;;;;;;;1.95;1.17;;;16.90;49.00;;;;;;5101343;28;20084;-71
2023/01/31 00:58:30;;;;;;;1.30;1.20;;;16.80;49.10;;;;;;5099976;28;20430;-70
2023/01/31 01:01:05;;;;;;;1.35;1.25;;;16.80;49.30;;;;;;5101157;28;20091;-71
2023/01/31 01:03:31;;;;;;;0.93;0.85;;;16.70;49.40;;;;;;5099898;28;20024;-71
2023/01/31 01:05:57;;;;;;;1.27;1.17;;;16.60;49.70;;;;;;5100999;28;20430;-71
2023/01/31 01:08:23;;;;;;;0.80;0.80;;;16.60;49.70;;;;;;5100931;28;20060;-70
2023/01/31 01:10:48;;;;;;;1.10;1.00;;;16.60;50.10;;;;;;5100973;28;20105;-70
2023/01/31 01:13:14;;;;;;;1.38;1.10;;;16.60;50.00;;;;;;5101047;28;20024;-71
2023/01/31 01:15:40;;;;;;;1.25;1.15;;;16.50;50.10;;;;;;5101049;28;20020;-71
2023/01/31 01:18:07;;;;;;;1.15;1.05;;;16.50;50.10;;;;;;5101000;28;20583;-70
2023/01/31 01:20:35;;;;;;;0.90;0.90;;;16.40;50.30;;;;;;5099707;28;20038;-71
2023/01/31 01:23:01;;;;;;;1.25;1.08;;;16.40;49.90;;;;;;5100985;28;20012;-70
2023/01/31 01:25:27;;;;;;;1.15;1.05;;;16.40;50.10;;;;;;5100797;28;20042;-70
2023/01/31 01:27:53;;;;;;;1.10;0.98;;;16.40;50.50;;;;;;5100865;28;20031;-71
2023/01/31 01:30:20;;;;;;;1.02;0.98;;;16.50;50.50;;;;;;5099443;28;20028;-70
2023/01/31 01:32:46;;;;;;;0.90;0.70;;;16.60;50.30;;;;;;5100557;28;20238;-70
2023/01/31 01:35:12;;;;;;;1.08;0.98;;;16.60;49.60;;;;;;5100919;28;20232;-70
2023/01/31 01:37:38;;;;;;;1.88;1.00;;;16.80;49.90;;;;;;5100680;28;20028;-70
2023/01/31 01:40:04;;;;;;;0.68;0.68;;;16.90;49.60;;;;;;5099323;28;20107;-71
2023/01/31 01:42:34;;;;;;;1.02;0.93;;;16.90;49.60;;;;;;5100554;28;20062;-71
2023/01/31 01:45:03;;;;;;;1.35;1.02;;;17.00;49.50;;;;;;5100646;28;20051;-70
2023/01/31 01:47:45;;;;;;;0.90;0.90;;;17.00;49.40;;;;;;5099158;28;20020;-71
2023/01/31 01:50:18;;;;;;;1.10;1.00;;;17.00;49.50;;;;;;5100464;28;20082;-70
2023/01/31 01:52:52;;;;;;;1.30;0.93;;;17.00;49.40;;;;;;5100378;28;20088;-71
2023/01/31 01:55:29;;;;;;;1.17;1.08;;;17.10;49.40;;;;;;5100501;28;20083;-70
2023/01/31 01:58:02;;;;;;;0.75;0.75;;;17.10;49.40;;;;;;5100560;28;20061;-71
2023/01/31 02:00:29;;;;;;;1.13;1.00;;;17.10;49.30;;;;;;5100456;28;20044;-71
2023/01/31 02:02:58;;;;;;;1.10;1.00;;;17.10;49.30;;;;;;5100419;28;20039;-70
2023/01/31 02:05:29;;;;;;;1.30;0.85;;;17.10;49.30;;;;;;5099219;28;20189;-70
2023/01/31 02:07:56;;;;;;;1.38;0.98;;;17.10;49.40;;;;;;5100431;28;20114;-70
2023/01/31 02:10:52;;;;;;;1.00;0.90;;;17.00;49.30;;;;;;5100449;28;20030;-70
2023/01/31 02:13:19;;;;;;;1.08;0.95;;;17.00;49.40;;;;;;5100420;28;20030;-70
2023/01/31 02:15:45;;;;;;;0.88;0.80;;;17.00;49.50;;;;;;5099009;28;20090;-71
2023/01/31 02:18:12;;;;;;;0.93;0.82;;;16.90;49.40;;;;;;5100302;28;20023;-70
2023/01/31 02:21:02;;;;;;;1.10;1.00;;;16.90;49.70;;;;;;5100227;28;20314;-71
2023/01/31 02:24:00;;;;;;;1.20;1.00;;;16.80;49.70;;;;;;5100317;28;20038;-70
2023/01/31 02:26:38;;;;;;;1.50;1.30;;;16.70;49.90;;;;;;5100259;28;20043;-70
2023/01/31 02:29:06;;;;;;;1.40;1.13;;;16.70;50.20;;;;;;5100273;28;20028;-70
2023/01/31 02:31:58;;;;;;;1.20;1.02;;;16.60;50.20;;;;;;5098940;28;20023;-70
2023/01/31 02:34:37;;;;;;;1.10;1.00;;;16.50;50.50;;;;;;5100198;28;20358;-70
2023/01/31 02:37:17;;;;;;;0.85;0.85;;;16.50;50.60;;;;;;5100009;28;20081;-70
2023/01/31 02:39:51;;;;;;;1.00;0.90;;;16.50;50.70;;;;;;5100057;28;20031;-70
2023/01/31 02:42:45;;;;;;;1.27;0.93;;;16.40;50.70;;;;;;5100134;28;20038;-70
2023/01/31 02:45:34;;;;;;;1.35;1.17;;;16.40;50.80;;;;;;5101529;28;20037;-70
2023/01/31 02:48:27;;;;;;;1.30;0.85;;;16.50;50.70;;;;;;5103998;28;20028;-70
2023/01/31 02:50:58;;;;;;;1.13;1.02;;;16.70;50.50;;;;;;5102442;28;20035;-69
2023/01/31 02:53:30;;;;;;;0.98;0.85;;;16.80;50.10;;;;;;5102568;28;20103;-71
2023/01/31 02:56:16;;;;;;;1.67;1.10;;;16.90;49.90;;;;;;5102375;28;20087;-71
2023/01/31 02:59:00;;;;;;;0.95;0.90;;;17.00;49.80;;;;;;5103724;28;20092;-70
2023/01/31 03:01:36;;;;;;;1.02;0.93;;;17.00;49.60;;;;;;5103571;28;20024;-70
2023/01/31 03:04:11;;;;;;;0.88;0.88;;;17.00;49.50;;;;;;5103482;28;20563;-70
2023/01/31 03:06:36;;;;;;;1.10;0.95;;;17.10;49.40;;;;;;5103588;28;20028;-71
2023/01/31 03:09:09;;;;;;;0.95;0.90;;;17.10;49.50;;;;;;5103390;28;20277;-71
2023/01/31 03:11:52;;;;;;;1.08;0.98;;;17.10;49.40;;;;;;5103411;28;20058;-71
2023/01/31 03:14:50;;;;;;;0.82;0.80;;;17.10;49.40;;;;;;5103453;28;20440;-69
2023/01/31 03:17:48;;;;;;;1.40;1.00;;;17.10;49.40;;;;;;5048025;28;20033;-70
2023/01/31 03:20:31;;;;;;;0.85;0.82;;;17.10;49.30;;;;;;5103290;28;20031;-71
2023/01/31 03:23:10;;;;;;;1.77;1.05;;;17.00;49.30;;;;;;5103252;28;20032;-70
2023/01/31 03:25:38;;;;;;;1.20;1.10;;;16.90;49.20;;;;;;5103293;28;20058;-71
2023/01/31 03:28:10;;;;;;;1.10;1.00;;;16.90;49.60;;;;;;5101774;28;20031;-71
2023/01/31 03:30:41;;;;;;;0.77;0.70;;;16.80;49.30;;;;;;5103043;28;20220;-70
2023/01/31 03:33:25;;;;;;;1.15;0.75;;;16.80;49.60;;;;;;5103181;28;20024;-70
2023/01/31 03:36:29;;;;;;;1.33;1.08;;;16.70;49.50;;;;;;5103080;28;20042;-70
2023/01/31 03:39:07;;;;;;;0.95;0.80;;;16.60;49.80;;;;;;5103064;28;20024;-70
2023/01/31 03:41:46;;;;;;;1.63;1.33;;;16.50;49.90;;;;;;5102959;28;20028;-70
2023/01/31 03:44:20;;;;;;;1.02;0.93;;;16.50;50.20;;;;;;5102834;28;20023;-70
2023/01/31 03:46:52;;;;;;;1.00;0.95;;;16.50;50.30;;;;;;5102983;28;20032;-70
2023/01/31 03:49:21;;;;;;;1.00;0.95;;;16.40;50.30;;;;;;5102923;28;20094;-70
2023/01/31 03:51:49;;;;;;;;;;;16.40;50.50;;;;;;5103167;28;20242;-70
2023/01/31 03:54:24;;;;;;;0.80;0.80;;;16.40;50.80;;;;;;5102719;28;19915;-70
2023/01/31 03:57:07;;;;;;;1.48;0.90;;;16.50;50.50;;;;;;5102553;28;20036;-70
2023/01/31 03:59:38;;;;;;;1.50;0.90;;;16.70;49.90;;;;;;5102620;28;20266;-70
2023/01/31 04:02:06;;;;;;;1.30;1.20;;;16.80;49.60;;;;;;5101242;28;20020;-70
2023/01/31 04:04:49;;;;;;;1.10;0.90;;;16.80;49.30;;;;;;5102609;28;20043;-69
2023/01/31 04:07:16;;;;;;;1.00;0.90;;;16.90;49.50;;;;;;5102705;28;20036;-70
2023/01/31 04:09:42;;;;;;;0.70;0.70;;;17.00;49.30;;;;;;5102281;28;20050;-70
2023/01/31 04:12:12;;;;;;;1.05;0.95;;;16.90;49.40;;;;;;5101942;28;20027;-70
2023/01/31 04:14:38;;;;;;;1.17;0.88;;;17.00;49.30;;;;;;5102359;28;20087;-70
2023/01/31 04:17:04;;;;;;;0.93;0.70;;;17.00;49.40;;;;;;5100978;28;20028;-69
2023/01/31 04:19:30;;;;;;;0.80;0.80;;;17.00;49.30;;;;;;5102150;28;20012;-70
2023/01/31 04:21:55;;;;;;;0.77;0.77;;;17.00;49.10;;;;;;5102131;28;20035;-71
2023/01/31 04:24:21;;;;;;;0.90;0.90;;;17.10;49.30;;;;;;5101999;28;20024;-71
2023/01/31 04:26:47;;;;;;;1.23;0.68;;;17.10;49.30;;;;;;5102036;28;20020;-71
2023/01/31 04:29:13;;;;;;;0.73;0.65;;;17.10;49.20;;;;;;5100581;28;20024;-70
2023/01/31 04:31:40;;;;;;;0.70;0.70;;;17.10;49.40;;;;;;5101853;28;20253;-71
2023/01/31 04:34:06;;;;;;;0.80;0.80;;;17.10;49.20;;;;;;5101885;28;20043;-71
2023/01/31 04:36:32;;;;;;;0.80;0.70;;;17.00;49.40;;;;;;5100415;28;20503;-71
2023/01/31 04:38:59;;;;;;;0.70;0.70;;;17.00;49.50;;;;;;5101723;28;20035;-70
2023/01/31 04:41:25;;;;;;;0.77;0.70;;;16.90;49.50;;;;;;5101701;28;20220;-71
2023/01/31 04:43:51;;;;;;;0.60;0.60;;;16.90;49.30;;;;;;5101606;28;20031;-70
2023/01/31 04:46:18;;;;;;;0.70;0.60;;;16.80;49.50;;;;;;5100367;28;20391;-70
2023/01/31 04:48:44;;;;;;;0.98;0.80;;;16.80;49.60;;;;;;5101505;28;20024;-71
2023/01/31 04:51:09;;;;;;;1.20;0.90;;;16.70;49.70;;;;;;5101440;28;20066;-70
2023/01/31 04:53:35;;;;;;;0.60;0.60;;;16.70;49.90;;;;;;5101449;28;20012;-71
2023/01/31 04:56:02;;;;;;;1.02;0.93;;;16.60;50.10;;;;;;5101399;28;20324;-71
2023/01/31 04:58:29;;;;;;;0.70;0.70;;;16.60;50.30;;;;;;5100050;28;20065;-71
2023/01/31 05:00:55;;;;;;;0.77;0.77;;;16.50;50.40;;;;;;5101308;28;20091;-71
2023/01/31 05:03:20;;;;;;;1.00;0.80;;;16.50;50.60;;;;;;5101380;28;20406;-70
2023/01/31 05:05:50;;;;;;;1.40;0.95;;;16.40;50.70;;;;;;5101320;28;20036;-70
2023/01/31 05:08:16;;;;;;;1.00;0.90;;;16.40;50.80;;;;;;5100547;28;20043;-70
2023/01/31 05:10:42;;;;;;;0.70;0.70;;;16.40;50.80;;;;;;5101182;28;20034;-71
2023/01/31 05:13:09;;;;;;;1.05;0.90;;;16.60;50.70;;;;;;5101241;28;20212;-71
2023/01/31 05:15:34;;;;;;;1.13;1.00;;;16.70;50.60;;;;;;5101183;28;20028;-70
2023/01/31 05:18:04;;;;;;;1.00;0.70;;;16.80;50.30;;;;;;5101231;28;20138;-70
2023/01/31 05:20:38;;;;;;;0.75;0.60;;;16.90;50.10;;;;;;5101124;28;20043;-71
2023/01/31 05:23:04;;;;;;;0.95;0.75;;;17.00;49.90;;;;;;5100952;28;20043;-70
2023/01/31 05:25:30;;;;;;;0.80;0.80;;;17.00;49.70;;;;;;5099695;28;20047;-70
2023/01/31 05:27:56;;;;;;;0.90;0.60;;;17.00;49.70;;;;;;5100912;28;20030;-71
2023/01/31 05:30:23;;;;;;;1.05;0.80;;;17.00;49.50;;;;;;5100827;28;20409;-71
2023/01/31 05:32:49;;;;;;;0.55;0.55;;;17.00;49.50;;;;;;5100836;28;20238;-71
2023/01/31 05:35:15;;;;;;;1.25;0.70;;;17.10;49.50;;;;;;5100724;28;20027;-70
2023/01/31 05:37:42;;;;;;;0.75;0.75;;;17.10;49.50;;;;;;5100706;28;20079;-70
2023/01/31 05:40:16;;;;;;;1.35;0.85;;;17.10;49.50;;;;;;5100641;28;20031;-70
2023/01/31 05:42:42;;;;;;;0.85;0.80;;;17.10;49.50;;;;;;5100801;28;20038;-71
2023/01/31 05:45:09;;;;;;;1.10;0.70;;;17.20;49.30;;;;;;5100671;28;20069;-71
2023/01/31 05:47:35;;;;;;;0.88;0.88;;;17.20;49.40;;;;;;5100663;28;20375;-71
2023/01/31 05:50:02;;;;;;;0.98;0.88;;;17.20;49.40;;;;;;5099246;28;20048;-71
2023/01/31 05:52:28;;;;;;;1.10;0.65;;;17.20;49.30;;;;;;5100694;28;20031;-71
2023/01/31 05:54:54;;;;;;;0.70;0.70;;;17.20;49.30;;;;;;5099354;28;20024;-70
2023/01/31 05:57:19;;;;;;;1.00;0.88;;;17.20;49.30;;;;;;5100539;28;20066;-72
2023/01/31 05:59:46;;;;;;;0.98;0.75;;;17.30;49.30;;;;;;5100544;28;20024;-71
2023/01/31 06:02:12;;;;;;;0.50;0.50;;;17.30;49.30;;;;;;5099220;28;20216;-71
2023/01/31 06:04:38;;;;;;;0.70;0.60;;;17.30;49.30;;;;;;5100489;28;20083;-71
2023/01/31 06:07:04;;;;;;;0.90;0.73;;;17.30;49.30;;;;;;5100437;28;20315;-70
2023/01/31 06:09:29;;;;;;;1.05;0.82;;;17.30;49.30;;;;;;5100397;28;20051;-71
2023/01/31 06:11:55;;;;;;;0.80;0.80;;;17.30;49.30;;;;;;5100439;28;20028;-70
2023/01/31 06:14:21;;;;;;;0.75;0.70;;;17.40;49.40;;;;;;5100402;28;20059;-70
2023/01/31 06:16:47;;;;;;;1.08;0.65;;;17.40;49.30;;;;;;5100348;28;20016;-70
2023/01/31 06:19:13;;;;;;;1.33;0.70;;;17.40;49.30;;;;;;5100252;28;20127;-70
2023/01/31 06:21:38;;;;;;;0.90;0.77;;;17.40;49.30;;;;;;5104495;28;20031;-70
2023/01/31 06:24:05;;;;;;;1.10;0.82;;;17.40;49.30;;;;;;5104472;28;20028;-70
2023/01/31 06:26:30;;;;;;;0.90;0.70;;;17.40;49.20;;;;;;5104319;28;20012;-71
2023/01/31 06:28:56;;;;;;;0.63;0.63;;;17.40;49.30;;;;;;5104392;28;20027;-71
2023/01/31 06:31:22;;;;;;;1.20;0.60;;;17.40;49.80;;;;;;5104313;28;20544;-71
2023/01/31 06:33:48;;;;;;;0.88;0.85;;;17.50;49.10;;;;;;5104268;28;20375;-71
2023/01/31 06:36:15;;;;;;;0.93;0.93;;;17.50;49.30;;;;;;5102769;28;20062;-71
2023/01/31 06:38:41;;;;;;;0.50;0.50;;;17.50;49.20;;;;;;5102743;28;20024;-70
2023/01/31 06:41:07;;;;;;;0.65;0.65;;;17.50;49.20;;;;;;5104074;28;20031;-70
2023/01/31 06:43:33;;;;;;;1.63;0.75;;;17.50;49.10;;;;;;5104057;28;20472;-72
2023/01/31 06:45:59;;;;;;;0.98;0.88;;;17.50;49.10;;;;;;5103952;28;20028;-70
2023/01/31 06:48:24;;;;;;;1.20;0.80;;;17.50;49.20;;;;;;5103957;28;20024;-70
2023/01/31 06:50:50;;;;;;;0.73;0.60;;;17.50;49.20;;;;;;5103761;28;20192;-70
2023/01/31 06:53:16;;;;;;;0.82;0.68;;;17.60;49.20;;;;;;5103865;28;20020;-70
2023/01/31 06:55:42;;;;;;;1.10;1.00;;;17.50;49.20;;;;;;5103810;28;20024;-71
2023/01/31 06:58:07;;;;;;;0.82;0.70;;;17.50;49.20;;;;;;5103722;28;20020;-70
2023/01/31 07:00:33;;;;;;;0.80;0.63;;;17.60;49.20;;;;;;5103728;28;20034;-70
2023/01/31 07:02:59;;;;;;;1.05;0.68;;;17.60;49.20;;;;;;5103769;28;20032;-71
2023/01/31 07:05:25;;;;;;;0.82;0.80;;;17.60;49.30;;;;;;5103665;28;20071;-70
2023/01/31 07:07:50;;;;;;;0.80;0.60;;;17.60;49.30;;;;;;5103419;28;20085;-70
2023/01/31 07:10:17;;;;;;;1.08;0.60;;;17.60;49.40;;;;;;5102288;28;20032;-71
2023/01/31 07:12:42;;;;;;;0.60;0.60;;;17.60;49.30;;;;;;5103517;28;20024;-71
2023/01/31 07:15:10;;;;;;;0.70;0.70;;;17.60;49.30;;;;;;5103565;28;20027;-71
2023/01/31 07:17:36;;;;;;;0.73;0.70;;;17.60;49.30;;;;;;5102098;28;20024;-70
2023/01/31 07:20:02;;;;;;;0.70;0.70;;;17.60;49.30;;;;;;5103386;28;20016;-71
2023/01/31 07:22:27;;;;;;;0.70;0.70;;;17.70;49.20;;;;;;5103407;28;20031;-72
2023/01/31 07:24:53;;;;;;;0.50;0.50;;;17.70;49.30;;;;;;5103308;28;20023;-70
2023/01/31 07:27:19;;;;;;;0.50;0.50;;;17.60;49.20;;;;;;5103159;28;20024;-71
2023/01/31 07:29:45;;;;;;;1.23;0.98;;;17.70;49.30;;;;;;5102567;28;20046;-71
2023/01/31 07:32:11;;;;;;;12.20;2.42;;;17.60;47.80;;;;;;5103209;28;20129;-71
2023/01/31 07:34:37;;;;;;;11.52;1.80;;;17.00;47.20;;;;;;5101128;28;20028;-70
2023/01/31 07:37:03;;;;;;;20.52;1.83;;;16.90;48.90;;;;;;5094929;28;20051;-72
2023/01/31 07:39:28;;;;;;;13.45;1.30;;;17.20;49.70;;;;;;5096797;28;20016;-70
2023/01/31 07:41:54;;;;;;;9.23;1.48;;;17.40;49.60;;;;;;5082781;28;20051;-74
2023/01/31 07:44:20;;;;;;;7.80;1.40;;;17.50;49.60;;;;;;5093599;28;20032;-69
2023/01/31 07:46:47;;;;;;;6.32;1.35;;;17.60;49.50;;;;;;5111309;28;20020;-70
2023/01/31 07:49:13;;;;;;;8.73;1.40;;;17.70;49.40;;;;;;5107974;28;20024;-71
2023/01/31 07:51:39;;;;;;;9.73;1.50;;;17.70;49.50;;;;;;5101501;28;20185;-70
2023/01/31 07:54:06;;;;;;;16.15;2.28;;;17.70;49.60;;;;;;5102542;28;20092;-71
2023/01/31 07:56:31;;;;;;;10.57;1.92;;;17.70;49.50;;;;;;5100574;28;20024;-70
2023/01/31 07:58:58;;;;;;;6.80;1.48;;;17.70;49.60;;;;;;5101896;28;20476;-70
2023/01/31 08:04:12;;;;;;;4.20;1.20;;;17.70;49.70;;;;;;5102286;28;20022;-71
2023/01/31 08:06:43;;;;;;;9.75;1.40;;;17.80;49.60;;;;;;5100696;28;20032;-70
2023/01/31 08:09:09;;;;;;;6.03;1.10;;;17.80;49.60;;;;;;5102013;28;20060;-71
2023/01/31 08:11:35;;;;;;;4.18;1.33;;;17.80;49.60;;;;;;5102077;28;20036;-70
2023/01/31 08:14:00;;;;;;;5.80;1.38;;;17.90;49.60;;;;;;5114111;28;20028;-71
2023/01/31 08:16:26;;;;;;;13.27;1.92;;;17.90;49.60;;;;;;5122275;28;20061;-70
2023/01/31 08:18:52;;;;;;;5.80;1.50;;;17.90;49.60;;;;;;5122305;28;20024;-70
2023/01/31 08:21:19;;;;;;;6.85;1.40;;;17.90;49.60;;;;;;5122337;28;20031;-70
2023/01/31 08:23:45;;;;;;;12.95;1.73;;;17.80;50.30;;;;;;5122288;28;20074;-69
2023/01/31 08:26:15;;;;;;;9.10;1.60;;;17.90;49.80;;;;;;5122110;28;20090;-69
2023/01/31 08:28:43;;;;;;;16.38;1.77;;;17.90;49.80;;;;;;5120861;28;20027;-71
2023/01/31 08:31:18;;;;;;;14.40;1.90;;;17.90;49.90;;;;;;5105213;28;20028;-70
2023/01/31 08:33:44;;;;;;;12.55;2.05;;;17.80;50.00;;;;;;5100734;28;20047;-70
2023/01/31 08:36:13;;;;;;;6.03;1.98;;;17.90;49.80;;;;;;5101510;28;20020;-72
2023/01/31 08:38:39;;;;;;;20.25;2.60;;;17.90;50.00;;;;;;5099663;28;20036;-73
2023/01/31 08:41:05;;;;;;;10.65;2.53;;;18.00;50.00;;;;;;5091945;28;20096;-68
2023/01/31 08:43:31;;;;;;;9.05;1.42;;;18.00;50.00;;;;;;5080758;28;20024;-70
2023/01/31 08:45:57;;;;;;;9.65;2.03;;;18.00;50.00;;;;;;5079686;28;20025;-69
2023/01/31 08:48:23;;;;;;;17.20;1.90;;;18.00;50.00;;;;;;5081083;28;20134;-70
2023/01/31 08:50:49;;;;;;;3.00;1.20;;;17.90;50.10;;;;;;5091340;28;20546;-70
2023/01/31 08:53:14;;;;;;;91.00;7.88;;;17.90;50.10;;;;;;5089818;28;20050;-70
2023/01/31 08:55:40;;;;;;;165.50;12.75;;;18.00;50.30;;;;;;5099559;28;20019;-71
2023/01/31 08:58:06;;;;;;;351.40;30.10;;;18.00;50.40;;;;;;5101215;28;20575;-71
2023/01/31 09:00:32;;;;;;;178.00;18.10;;;18.10;50.50;;;;;;5101408;28;20052;-69
2023/01/31 09:02:59;;;;;;;202.93;19.70;;;18.10;50.60;;;;;;5094902;28;20316;-70
2023/01/31 09:05:27;;;;;;;138.70;12.40;;;18.20;50.60;;;;;;5083094;28;20032;-70
2023/01/31 09:07:53;;;;;;;253.63;22.17;;;18.10;50.50;;;;;;5094607;28;20338;-73
2023/01/31 09:10:20;;;;;;;409.48;35.30;;;18.10;50.60;;;;;;5100682;28;20024;-69
2023/01/31 09:12:46;;;;;;;317.70;26.27;;;18.20;50.70;;;;;;5094946;28;20395;-71
2023/01/31 09:15:12;;;;;;;205.27;17.92;;;18.20;50.70;;;;;;5099133;28;20403;-71
2023/01/31 09:17:39;;;;;;;114.35;10.70;;;18.10;50.60;;;;;;5096952;28;20016;-71
2023/01/31 09:20:08;;;;;;;109.95;10.73;;;18.10;50.70;;;;;;5093853;28;20087;-70
2023/01/31 09:22:34;;;;;;;79.43;9.07;;;18.10;50.60;;;;;;5100762;28;20338;-70
2023/01/31 09:25:00;;;;;;;116.70;9.50;;;18.20;50.50;;;;;;5100804;28;20027;-70
2023/01/31 09:27:27;;;;;;;77.78;7.57;;;18.10;50.70;;;;;;5099989;28;20024;-70
2023/01/31 09:29:52;;;;;;;65.10;7.22;;;18.20;50.70;;;;;;5100809;28;20020;-70
2023/01/31 09:32:20;;;;;;;70.53;7.60;;;18.10;50.60;;;;;;5098316;28;20028;-70
2023/01/31 09:34:47;;;;;;;62.15;7.32;;;18.20;50.60;;;;;;5080399;28;20024;-70
2023/01/31 09:37:14;;;;;;;55.63;6.57;;;18.20;50.70;;;;;;5080331;28;20522;-70
2023/01/31 09:39:40;;;;;;;38.38;5.88;;;18.20;50.70;;;;;;5080330;28;20012;-70
2023/01/31 09:42:28;;;;;;;74.93;6.90;;;18.10;50.60;;;;;;5092965;28;20043;-70
2023/01/31 09:45:09;;;;;;;77.20;11.70;;;18.20;50.80;;;;;;5100485;28;20047;-69
2023/01/31 09:47:57;;;;;;;68.30;7.95;;;18.20;50.70;;;;;;5100330;28;20328;-69
2023/01/31 09:50:26;;;;;;;74.93;7.43;;;18.10;50.80;;;;;;5099170;28;20024;-69
2023/01/31 09:52:52;;;;;;;57.60;7.47;;;18.20;51.00;;;;;;5097313;28;20344;-70
2023/01/31 09:55:41;;;;;;;63.78;7.65;;;18.20;50.70;;;;;;5080226;28;20094;-70
2023/01/31 09:58:32;;;;;;;61.95;6.32;;;18.20;50.70;;;;;;5058699;28;20317;-71
2023/01/31 10:01:06;;;;;;;64.85;7.97;;;18.20;50.80;;;;;;5080048;28;20364;-70
2023/01/31 10:03:57;;;;;;;61.85;7.20;;;18.30;50.80;;;;;;5081800;28;20046;-71
2023/01/31 10:06:39;;;;;;;53.28;5.50;;;18.20;50.70;;;;;;5079202;28;20060;-70
2023/01/31 10:09:22;;;;;;;46.05;6.45;;;18.20;50.90;;;;;;5079398;28;20040;-70
2023/01/31 10:12:02;;;;;;;43.90;7.43;;;18.20;51.10;;;;;;5079182;28;20024;-71
2023/01/31 10:14:40;;;;;;;54.45;7.85;;;18.10;51.10;;;;;;5079880;28;20092;-71
2023/01/31 10:17:12;;;;;;;60.53;7.03;;;18.00;51.20;;;;;;5079785;28;20021;-70
2023/01/31 10:20:01;;;;;;;57.33;6.28;;;17.90;51.30;;;;;;5079814;28;20213;-71
2023/01/31 10:22:45;;;;;;;33.00;6.28;;;17.90;51.40;;;;;;5079233;28;20103;-71
2023/01/31 10:25:30;;;;;;;45.70;6.25;;;17.80;51.40;;;;;;5079534;28;20087;-70
2023/01/31 10:28:42;;;;;;;45.83;5.88;;;17.80;51.40;;;;;;5079052;28;20047;-70
2023/01/31 10:31:32;;;;;;;50.17;8.15;;;17.80;51.40;;;;;;5079071;28;20103;-70
2023/01/31 10:34:22;;;;;;;31.88;5.93;;;17.80;51.40;;;;;;5079644;28;20074;-70
2023/01/31 10:37:04;;;;;;;39.97;6.07;;;17.70;51.40;;;;;;5079628;28;20035;-71
2023/01/31 10:39:56;;;;;;;57.90;5.63;;;17.70;51.50;;;;;;5079602;28;20044;-70
2023/01/31 10:42:35;;;;;;;57.95;5.95;;;17.70;51.50;;;;;;5079662;28;20024;-69
2023/01/31 10:45:18;;;;;;;33.40;6.05;;;17.70;51.50;;;;;;5079700;28;20031;-71
2023/01/31 10:48:00;;;;;;;44.63;7.35;;;17.70;51.40;;;;;;5079396;28;20024;-69
2023/01/31 10:50:42;;;;;;;39.28;6.60;;;17.80;51.20;;;;;;5079556;28;20028;-70
2023/01/31 10:53:25;;;;;;;36.35;5.10;;;17.90;51.00;;;;;;5079613;28;20111;-71
2023/01/31 10:56:13;;;;;;;40.58;5.38;;;17.90;50.90;;;;;;5079564;28;20040;-71
2023/01/31 10:58:39;;;;;;;40.28;6.65;;;18.00;50.80;;;;;;5079445;28;20025;-71
2023/01/31 11:01:13;;;;;;;39.78;5.78;;;18.00;50.70;;;;;;5078099;28;20042;-70
2023/01/31 11:03:46;;;;;;;26.13;4.70;;;18.10;50.80;;;;;;5079484;28;20336;-70
2023/01/31 11:06:12;;;;;;;32.53;6.10;;;18.10;50.80;;;;;;5081915;28;20308;-70
2023/01/31 11:08:45;;;;;;;34.60;4.82;;;18.10;50.80;;;;;;5082515;28;20070;-70
2023/01/31 11:11:20;;;;;;;33.55;4.72;;;18.00;50.40;;;;;;5082951;28;20032;-70
2023/01/31 11:14:03;;;;;;;38.65;5.65;;;18.10;50.80;;;;;;5083063;28;20024;-71
2023/01/31 11:16:36;;;;;;;16.95;3.05;;;18.20;50.80;;;;;;5082952;28;20020;-70
2023/01/31 11:19:39;;;;;;;34.47;5.22;;;17.60;46.30;;;;;;5082963;28;20020;-72
2023/01/31 11:22:06;;;;;;;32.08;4.13;;;17.90;50.60;;;;;;5020798;28;20093;-69
2023/01/31 11:24:36;;;;;;;38.10;7.43;;;17.90;50.80;;;;;;5071868;28;20074;-70
2023/01/31 11:27:04;;;;;;;50.45;12.13;;;18.00;51.00;;;;;;5082743;28;20020;-71
2023/01/31 11:29:49;;;;;;;52.53;14.63;;;17.90;51.90;;;;;;5082890;28;20024;-70
2023/01/31 11:32:25;;;;;;;46.78;10.65;;;17.90;51.60;;;;;;5082779;28;20073;-71
2023/01/31 11:35:04;;;;;;;38.85;8.65;;;17.80;51.80;;;;;;5082689;28;20235;-69
2023/01/31 11:37:31;;;;;;;53.20;8.07;;;17.80;52.50;;;;;;5082661;28;20035;-69
2023/01/31 11:40:00;;;;;;;41.50;8.00;;;17.80;53.00;;;;;;5082458;28;20013;-69
2023/01/31 11:42:26;;;;;;;41.03;7.25;;;17.80;53.30;;;;;;5082490;28;20040;-68
2023/01/31 11:45:14;;;;;;;29.35;7.18;;;17.80;53.30;;;;;;5082448;28;20092;-69
2023/01/31 11:47:53;;;;;;;;;;;17.80;53.10;;;;;;5082790;28;20359;-69
2023/01/31 11:50:31;;;;;;;32.38;6.47;;;17.80;53.20;;;;;;5082202;28;20200;-69
2023/01/31 11:53:00;;;;;;;30.30;6.82;;;17.80;53.10;;;;;;5082293;28;20386;-68
2023/01/31 11:55:27;;;;;;;;;;;17.80;53.10;;;;;;5084243;28;20070;-68
2023/01/31 11:57:58;;;;;;;38.90;5.70;;;17.80;52.90;;;;;;5082162;28;19908;-70
2023/01/31 12:00:31;;;;;;;20.50;5.70;;;17.80;52.90;;;;;;5080736;28;20032;-70
2023/01/31 12:03:06;;;;;;;26.90;6.30;;;17.80;52.60;;;;;;5082034;28;20046;-71
2023/01/31 12:05:42;;;;;;;30.80;5.72;;;17.80;52.70;;;;;;5083628;28;20021;-70
2023/01/31 12:08:32;;;;;;;28.20;6.15;;;17.90;52.80;;;;;;5081494;28;20094;-71
2023/01/31 12:10:58;;;;;;;40.63;6.35;;;18.10;52.40;;;;;;5081950;28;20048;-70
2023/01/31 12:13:25;;;;;;;43.63;6.13;;;18.10;52.40;;;;;;5081904;28;20032;-70
2023/01/31 12:16:04;;;;;;;51.97;8.38;;;18.20;52.30;;;;;;5080480;28;20262;-69
2023/01/31 12:18:42;;;;;;;40.03;7.22;;;18.20;52.20;;;;;;5081877;28;20019;-70
2023/01/31 12:21:15;;;;;;;38.30;7.05;;;18.20;52.00;;;;;;5081897;28;20392;-70
2023/01/31 12:24:11;;;;;;;64.07;9.60;;;18.30;52.00;;;;;;5081716;28;20272;-70
2023/01/31 12:26:43;;;;;;;91.88;11.07;;;18.30;52.10;;;;;;5080249;28;20051;-70
2023/01/31 12:29:16;;;;;;;86.25;11.57;;;18.30;52.00;;;;;;5081594;28;20028;-70
2023/01/31 12:31:54;;;;;;;66.10;11.32;;;18.40;52.00;;;;;;5081644;28;20103;-69
2023/01/31 12:34:38;;;;;;;76.70;9.25;;;18.40;51.90;;;;;;5081405;28;20033;-69
2023/01/31 12:37:17;;;;;;;63.67;7.78;;;18.40;51.90;;;;;;5081221;28;20020;-69
2023/01/31 12:39:55;;;;;;;38.50;7.15;;;18.40;52.00;;;;;;5081398;28;20073;-69
2023/01/31 12:42:43;;;;;;;40.90;7.33;;;18.40;52.10;;;;;;5081634;28;20020;-71
2023/01/31 12:45:50;;;;;;;48.95;7.03;;;18.40;52.30;;;;;;5081336;28;20298;-69
2023/01/31 12:48:32;;;;;;;80.20;9.90;;;18.40;52.30;;;;;;5060767;28;20059;-69
2023/01/31 12:51:24;;;;;;;89.53;11.18;;;18.50;53.70;;;;;;5081072;28;20063;-70
2023/01/31 12:54:05;;;;;;;79.63;10.75;;;18.20;51.60;;;;;;5081177;28;20055;-69
2023/01/31 12:56:54;;;;;;;85.72;10.23;;;18.40;51.80;;;;;;5080996;28;20023;-71
2023/01/31 12:59:49;;;;;;;82.93;10.10;;;18.40;50.50;;;;;;5080890;28;20067;-70
2023/01/31 13:02:20;;;;;;;82.95;10.70;;;18.40;52.30;;;;;;5081068;28;20024;-70
2023/01/31 13:05:00;;;;;;;85.13;11.25;;;18.30;51.80;;;;;;5080965;28;20048;-71
2023/01/31 13:07:44;;;;;;;148.73;13.52;;;18.20;52.00;;;;;;5081333;28;20288;-69
2023/01/31 13:10:53;;;;;;;144.73;14.63;;;18.10;52.10;;;;;;5080686;28;20240;-74